createdAt,value
2022-11-09T00:01:28.507Z,5.32
2022-11-09T00:04:34.665Z,5.13
2022-11-09T00:07:42.266Z,5.49
2022-11-09T00:10:48.853Z,5.20
2022-11-09T00:13:55.016Z,4.89
2022-11-09T00:17:01.747Z,4.34
2022-11-09T00:20:08.720Z,4.37
2022-11-09T00:23:17.010Z,4.45
2022-11-09T00:26:23.954Z,4.53
2022-11-09T00:29:30.148Z,5.27
2022-11-09T00:32:36.126Z,4.67
2022-11-09T00:35:42.286Z,4.63
2022-11-09T00:38:52.655Z,4.61
2022-11-09T00:41:58.931Z,4.31
2022-11-09T00:45:05.755Z,4.36
2022-11-09T00:48:11.959Z,4.47
2022-11-09T00:51:19.145Z,4.44
2022-11-09T00:54:26.645Z,4.52
2022-11-09T00:57:32.772Z,5.12
2022-11-09T01:00:38.901Z,4.70
2022-11-09T01:03:46.110Z,4.05
2022-11-09T01:06:52.753Z,4.23
2022-11-09T01:10:00.563Z,4.89
2022-11-09T01:13:07.013Z,4.71
2022-11-09T01:16:18.350Z,4.33
2022-11-09T01:19:24.255Z,4.45
2022-11-09T01:22:30.454Z,4.26
2022-11-09T01:25:38.317Z,4.09
2022-11-09T01:28:44.681Z,4.53
2022-11-09T01:31:51.072Z,4.20
2022-11-09T01:34:57.273Z,3.87
2022-11-09T01:38:04.739Z,4.10
2022-11-09T01:41:15.550Z,3.65
2022-11-09T01:44:22.346Z,3.98
2022-11-09T01:47:28.522Z,3.57
2022-11-09T01:50:40.891Z,3.45
2022-11-09T01:53:51.859Z,4.01
2022-11-09T01:57:02.434Z,4.15
2022-11-09T02:00:12.826Z,4.03
2022-11-09T02:03:25.485Z,4.14
2022-11-09T02:06:33.036Z,4.26
2022-11-09T02:09:42.974Z,3.68
2022-11-09T02:12:50.845Z,3.54
2022-11-09T02:15:56.815Z,3.41
2022-11-09T02:19:02.982Z,4.12
2022-11-09T02:22:10.635Z,3.38
2022-11-09T02:25:17.730Z,2.90
2022-11-09T02:28:25.246Z,3.90
2022-11-09T02:31:35.749Z,3.94
2022-11-09T02:34:42.096Z,4.25
2022-11-09T02:37:51.545Z,4.28
2022-11-09T02:40:57.658Z,4.31
2022-11-09T02:44:04.066Z,3.74
2022-11-09T02:47:10.111Z,3.26
2022-11-09T02:50:15.864Z,3.56
2022-11-09T02:53:23.272Z,4.08
2022-11-09T02:56:29.450Z,3.84
2022-11-09T02:59:35.939Z,4.13
2022-11-09T03:02:42.461Z,4.10
2022-11-09T03:05:48.767Z,4.49
2022-11-09T03:08:56.235Z,3.56
2022-11-09T03:12:22.781Z,3.49
2022-11-09T03:15:29.178Z,3.48
2022-11-09T03:18:35.479Z,4.08
2022-11-09T03:21:42.018Z,3.54
2022-11-09T03:24:49.808Z,3.66
2022-11-09T03:27:59.124Z,3.61
2022-11-09T03:31:05.128Z,3.89
2022-11-09T03:34:11.150Z,3.48
2022-11-09T03:37:17.502Z,3.59
2022-11-09T03:40:25.104Z,3.91
2022-11-09T03:43:31.675Z,4.24
2022-11-09T03:46:38.135Z,4.17
2022-11-09T03:49:44.545Z,4.45
2022-11-09T03:52:50.810Z,4.70
2022-11-09T03:56:00.143Z,4.92
2022-11-09T03:59:06.089Z,4.77
2022-11-09T04:02:12.097Z,5.42
2022-11-09T04:05:18.964Z,4.99
2022-11-09T04:08:24.931Z,5.48
2022-11-09T04:11:32.842Z,5.46
2022-11-09T04:14:39.036Z,5.76
2022-11-09T04:17:45.860Z,5.15
2022-11-09T04:20:51.881Z,5.80
2022-11-09T04:23:58.319Z,6.07
2022-11-09T04:27:06.717Z,5.90
2022-11-09T04:30:13.737Z,6.17
2022-11-09T04:33:20.832Z,5.46
2022-11-09T04:36:38.590Z,5.80
2022-11-09T04:39:49.877Z,5.90
2022-11-09T04:43:06.470Z,6.34
2022-11-09T04:46:18.722Z,5.97
2022-11-09T04:49:32.728Z,5.78
2022-11-09T04:52:47.269Z,6.33
2022-11-09T04:55:53.379Z,6.43
2022-11-09T04:59:00.645Z,6.28
2022-11-09T05:02:08.184Z,6.07
2022-11-09T05:05:14.199Z,6.26
2022-11-09T05:08:20.529Z,5.93
2022-11-09T05:11:26.901Z,5.97
2022-11-09T05:14:34.412Z,6.32
2022-11-09T05:17:40.375Z,6.34
2022-11-09T05:20:46.301Z,5.85
2022-11-09T05:24:00.660Z,5.91
2022-11-09T05:27:07.414Z,6.37
2022-11-09T05:30:15.473Z,6.34
2022-11-09T05:33:22.020Z,5.71
2022-11-09T05:36:31.586Z,5.70
2022-11-09T05:39:37.702Z,6.02
2022-11-09T05:42:43.604Z,6.38
2022-11-09T05:45:51.041Z,5.92
2022-11-09T05:48:57.338Z,6.36
2022-11-09T05:52:03.679Z,6.27
2022-11-09T05:55:11.026Z,6.93
2022-11-09T05:58:16.968Z,6.96
2022-11-09T06:01:24.468Z,7.29
2022-11-09T06:04:30.462Z,7.51
2022-11-09T06:07:36.761Z,7.27
2022-11-09T06:10:44.118Z,7.19
2022-11-09T06:13:50.216Z,6.97
2022-11-09T06:16:58.030Z,6.72
2022-11-09T06:20:04.755Z,6.87
2022-11-09T06:23:12.163Z,6.68
2022-11-09T06:26:18.566Z,6.85
2022-11-09T06:29:24.719Z,7.22
2022-11-09T06:32:32.324Z,7.56
2022-11-09T06:35:38.444Z,7.40
2022-11-09T06:38:44.741Z,7.39
2022-11-09T06:41:50.742Z,7.76
2022-11-09T06:44:56.469Z,7.60
2022-11-09T06:48:05.391Z,7.72
2022-11-09T06:51:12.646Z,8.07
2022-11-09T06:54:18.829Z,7.92
2022-11-09T06:57:25.077Z,8.06
2022-11-09T07:00:31.248Z,7.97
2022-11-09T07:03:39.494Z,8.37
2022-11-09T07:06:45.633Z,8.66
2022-11-09T07:09:51.742Z,8.96
2022-11-09T07:12:58.596Z,9.08
2022-11-09T07:16:05.048Z,8.74
2022-11-09T07:19:12.936Z,9.17
2022-11-09T07:22:19.997Z,9.12
2022-11-09T07:25:27.517Z,9.40
2022-11-09T07:28:33.733Z,9.45
2022-11-09T07:31:40.064Z,9.75
2022-11-09T07:34:47.999Z,9.44
2022-11-09T07:37:54.193Z,9.41
2022-11-09T07:41:01.318Z,9.30
2022-11-09T07:44:07.586Z,9.63
2022-11-09T07:47:18.160Z,9.81
2022-11-09T07:50:26.016Z,10.41
2022-11-09T07:53:32.376Z,10.71
2022-11-09T07:56:39.075Z,10.72
2022-11-09T07:59:45.219Z,10.34
2022-11-09T08:02:51.527Z,10.18
2022-11-09T08:05:59.392Z,10.69
2022-11-09T08:09:05.480Z,10.66
2022-11-09T08:12:11.413Z,10.99
2022-11-09T08:15:17.646Z,10.75
2022-11-09T08:18:24.465Z,10.50
2022-11-09T08:21:32.019Z,10.99
2022-11-09T08:24:37.987Z,11.63
2022-11-09T08:27:44.363Z,11.68
2022-11-09T08:30:57.483Z,12.11
2022-11-09T08:34:03.450Z,11.89
2022-11-09T08:37:10.701Z,12.20
2022-11-09T08:40:18.608Z,11.88
2022-11-09T08:43:24.857Z,11.89
2022-11-09T08:46:31.362Z,12.18
2022-11-09T08:49:37.825Z,12.65
2022-11-09T08:52:45.373Z,12.63
2022-11-09T08:55:51.889Z,12.65
2022-11-09T08:58:58.445Z,13.48
2022-11-09T09:02:04.709Z,13.75
2022-11-09T09:05:11.517Z,13.36
2022-11-09T09:08:22.109Z,14.06
2022-11-09T09:11:28.454Z,13.62
2022-11-09T09:14:35.342Z,14.03
2022-11-09T09:17:41.613Z,14.01
2022-11-09T09:20:47.862Z,13.95
2022-11-09T09:23:56.006Z,14.57
2022-11-09T09:27:02.948Z,14.06
2022-11-09T09:30:10.201Z,14.86
2022-11-09T09:33:16.673Z,14.47
2022-11-09T09:36:24.909Z,14.42
2022-11-09T09:39:32.326Z,14.69
2022-11-09T09:42:44.247Z,13.98
2022-11-09T09:45:54.318Z,14.69
2022-11-09T09:49:07.430Z,14.75
2022-11-09T09:52:22.132Z,14.88
2022-11-09T09:55:35.517Z,14.86
2022-11-09T09:58:47.319Z,15.00
2022-11-09T10:01:57.508Z,15.26
2022-11-09T10:05:09.102Z,14.95
2022-11-09T10:08:23.587Z,14.87
2022-11-09T10:11:38.056Z,15.34
2022-11-09T10:15:13.749Z,15.43
2022-11-09T10:18:36.219Z,15.19
2022-11-09T10:21:49.586Z,15.13
2022-11-09T10:28:54.298Z,16.06
2022-11-09T10:32:10.811Z,16.45
2022-11-09T10:35:21.627Z,15.57
2022-11-09T10:38:31.125Z,15.36
2022-11-09T10:41:41.300Z,15.96
2022-11-09T10:44:48.938Z,15.89
2022-11-09T10:47:55.181Z,16.23
2022-11-09T10:51:01.363Z,16.16
2022-11-09T10:54:20.243Z,16.89
2022-11-09T10:57:26.663Z,16.15
2022-11-09T11:00:34.226Z,16.41
2022-11-09T11:03:41.242Z,16.45
2022-11-09T11:06:48.724Z,16.39
2022-11-09T11:09:54.921Z,17.06
2022-11-09T11:13:22.146Z,16.37
2022-11-09T11:16:34.237Z,16.34
2022-11-09T11:19:42.505Z,16.98
2022-11-09T11:22:48.969Z,16.37
2022-11-09T11:26:06.739Z,17.28
2022-11-09T11:29:27.658Z,17.61
2022-11-09T11:32:35.424Z,17.16
2022-11-09T11:35:50.176Z,17.84
2022-11-09T11:39:04.406Z,17.93
2022-11-09T11:42:25.464Z,17.54
2022-11-09T11:45:54.541Z,17.12
2022-11-09T11:49:32.549Z,17.70
2022-11-09T11:52:53.557Z,17.84
2022-11-09T11:56:30.758Z,17.67
2022-11-09T12:00:04.341Z,18.51
2022-11-09T12:03:35.216Z,18.16
2022-11-09T12:07:05.597Z,17.71
2022-11-09T12:10:28.662Z,17.68
2022-11-09T12:13:51.332Z,17.40
2022-11-09T12:17:04.705Z,18.89
2022-11-09T12:20:27.286Z,17.24
2022-11-09T12:23:50.638Z,17.95
2022-11-09T12:27:33.013Z,18.07
2022-11-09T12:30:49.521Z,18.07
2022-11-09T12:34:00.328Z,18.26
2022-11-09T12:37:14.114Z,18.35
2022-11-09T12:40:26.078Z,18.62
2022-11-09T12:43:36.097Z,18.63
2022-11-09T12:46:46.559Z,18.79
2022-11-09T12:49:55.014Z,18.80
2022-11-09T12:53:04.047Z,18.90
2022-11-09T12:56:18.655Z,18.44
2022-11-09T12:59:37.141Z,18.49
2022-11-09T13:02:55.833Z,19.57
2022-11-09T13:06:15.184Z,18.56
2022-11-09T13:09:25.850Z,18.47
2022-11-09T13:12:39.326Z,18.81
2022-11-09T13:16:07.620Z,19.10
2022-11-09T13:19:33.843Z,18.35
2022-11-09T13:23:01.924Z,18.29
2022-11-09T13:26:24.271Z,18.12
2022-11-09T13:29:52.291Z,18.39
2022-11-09T13:33:21.986Z,17.78
2022-11-09T13:36:28.651Z,17.94
2022-11-09T13:39:39.520Z,17.09
2022-11-09T13:42:45.955Z,16.84
2022-11-09T13:45:56.124Z,16.01
2022-11-09T13:49:02.519Z,16.24
2022-11-09T13:52:43.820Z,16.12
2022-11-09T13:55:51.313Z,15.98
2022-11-09T13:59:06.752Z,15.91
2022-11-09T14:02:19.786Z,15.88
2022-11-09T14:05:31.816Z,15.78
2022-11-09T14:08:40.666Z,15.53
2022-11-09T14:12:06.214Z,15.39
2022-11-09T14:15:24.099Z,15.25
2022-11-09T14:18:41.542Z,14.89
2022-11-09T14:21:49.405Z,14.82
2022-11-09T14:24:55.962Z,14.98
2022-11-09T14:28:03.694Z,14.85
2022-11-09T14:31:23.647Z,14.02
2022-11-09T14:34:30.454Z,14.11
2022-11-09T14:37:37.403Z,13.82
2022-11-09T14:40:46.241Z,13.95
2022-11-09T14:43:55.415Z,13.51
2022-11-09T14:47:01.794Z,13.59
2022-11-09T14:50:15.789Z,13.42
2022-11-09T14:53:26.744Z,13.57
2022-11-09T14:56:34.664Z,13.24
2022-11-09T14:59:45.901Z,13.12
2022-11-09T15:02:52.094Z,13.24
2022-11-09T15:06:07.493Z,13.18
2022-11-09T15:09:18.285Z,13.17
2022-11-09T15:12:25.066Z,12.93
2022-11-09T15:15:35.325Z,13.05
2022-11-09T15:18:46.689Z,12.96
2022-11-09T15:21:52.984Z,13.01
2022-11-09T15:24:59.382Z,12.78
2022-11-09T15:28:20.696Z,12.62
2022-11-09T15:31:28.633Z,12.65
2022-11-09T15:34:40.394Z,12.78
2022-11-09T15:37:53.731Z,12.68
2022-11-09T15:41:00.007Z,12.50
2022-11-09T15:44:06.982Z,12.54
2022-11-09T15:47:27.865Z,12.36
2022-11-09T15:50:34.129Z,12.26
2022-11-09T15:53:40.583Z,12.55
2022-11-09T15:56:46.921Z,11.93
2022-11-09T15:59:53.672Z,11.73
2022-11-09T16:03:01.090Z,11.57
2022-11-09T16:06:10.608Z,11.70
2022-11-09T16:09:17.247Z,11.75
2022-11-09T16:12:23.814Z,11.51
2022-11-09T16:15:32.396Z,11.49
2022-11-09T16:18:40.251Z,11.07
2022-11-09T16:21:49.099Z,11.00
2022-11-09T16:24:56.683Z,11.03
2022-11-09T16:28:02.637Z,10.82
2022-11-09T16:31:09.227Z,10.58
2022-11-09T16:34:17.316Z,10.71
2022-11-09T16:37:24.115Z,10.54
2022-11-09T16:40:31.893Z,10.47
2022-11-09T16:43:39.083Z,10.45
2022-11-09T16:46:47.281Z,10.38
2022-11-09T16:49:54.674Z,10.17
2022-11-09T16:53:01.087Z,10.18
2022-11-09T16:56:07.311Z,10.05
2022-11-09T16:59:13.407Z,10.11
2022-11-09T17:02:19.478Z,10.25
2022-11-09T17:05:27.240Z,10.42
2022-11-09T17:08:33.476Z,10.50
2022-11-09T17:11:39.890Z,9.96
2022-11-09T17:14:45.892Z,9.71
2022-11-09T17:17:52.341Z,9.88
2022-11-09T17:21:00.084Z,9.49
2022-11-09T17:24:06.985Z,9.54
2022-11-09T17:27:13.753Z,9.43
2022-11-09T17:30:20.075Z,9.50
2022-11-09T17:33:26.247Z,9.13
2022-11-09T17:37:05.462Z,9.33
2022-11-09T17:40:00.754Z,9.47
2022-11-09T17:43:07.318Z,9.30
2022-11-09T17:46:15.370Z,9.04
2022-11-09T17:49:21.656Z,8.86
2022-11-09T17:52:29.225Z,8.95
2022-11-09T17:55:38.329Z,8.85
2022-11-09T17:58:45.864Z,8.85
2022-11-09T18:01:52.340Z,8.88
2022-11-09T18:04:58.550Z,8.91
2022-11-09T18:08:08.509Z,8.73
2022-11-09T18:11:15.598Z,8.84
2022-11-09T18:14:22.048Z,8.71
2022-11-09T18:17:28.365Z,8.56
2022-11-09T18:20:34.877Z,8.35
2022-11-09T18:23:43.459Z,7.78
2022-11-09T18:26:50.057Z,7.67
2022-11-09T18:29:56.796Z,7.91
2022-11-09T18:33:02.982Z,7.27
2022-11-09T18:36:11.550Z,7.72
2022-11-09T18:39:19.377Z,7.85
2022-11-09T18:42:25.332Z,7.37
2022-11-09T18:45:34.658Z,7.39
2022-11-09T18:48:41.198Z,7.15
2022-11-09T18:51:47.430Z,7.23
2022-11-09T18:54:56.920Z,7.02
2022-11-09T18:58:03.252Z,6.57
2022-11-09T19:01:09.821Z,6.42
2022-11-09T19:04:16.672Z,6.39
2022-11-09T19:07:22.982Z,6.64
2022-11-09T19:10:30.922Z,6.42
2022-11-09T19:13:37.250Z,7.04
2022-11-09T19:16:43.236Z,7.00
2022-11-09T19:19:49.335Z,6.70
2022-11-09T19:22:55.524Z,6.48
2022-11-09T19:26:03.628Z,6.85
2022-11-09T19:29:10.880Z,7.08
2022-11-09T19:32:17.075Z,7.08
2022-11-09T19:35:26.449Z,7.25
2022-11-09T19:38:34.406Z,7.39
2022-11-09T19:41:42.172Z,7.23
2022-11-09T19:44:53.528Z,7.35
2022-11-09T19:48:02.913Z,7.25
2022-11-09T19:51:09.016Z,7.29
2022-11-09T19:54:15.674Z,7.12
2022-11-09T19:57:23.024Z,7.22
2022-11-09T20:00:29.412Z,7.21
2022-11-09T20:03:35.697Z,7.11
2022-11-09T20:06:41.993Z,7.03
2022-11-09T20:09:48.113Z,6.94
2022-11-09T20:12:55.686Z,6.79
2022-11-09T20:16:05.633Z,6.76
2022-11-09T20:19:14.309Z,6.10
2022-11-09T20:22:20.207Z,6.15
2022-11-09T20:25:26.125Z,6.41
2022-11-09T20:28:33.478Z,6.22
2022-11-09T20:31:39.965Z,5.55
2022-11-09T20:34:46.665Z,5.58
2022-11-09T20:37:53.059Z,5.83
2022-11-09T20:41:01.186Z,5.64
2022-11-09T20:44:08.499Z,5.97
2022-11-09T20:47:14.961Z,5.99
2022-11-09T20:50:21.053Z,5.49
2022-11-09T20:53:27.214Z,5.69
2022-11-09T20:56:33.571Z,5.53
2022-11-09T20:59:41.430Z,5.23
2022-11-09T21:02:48.302Z,5.28
2022-11-09T21:05:59.127Z,5.12
2022-11-09T21:09:06.297Z,5.07
2022-11-09T21:12:25.010Z,5.31
2022-11-09T21:15:32.805Z,5.77
2022-11-09T21:18:39.006Z,5.79
2022-11-09T21:21:44.998Z,5.42
2022-11-09T21:25:08.527Z,5.24
2022-11-09T21:28:34.052Z,5.66
2022-11-09T21:31:41.670Z,5.03
2022-11-09T21:34:47.746Z,5.27
2022-11-09T21:37:54.048Z,5.46
2022-11-09T21:41:21.579Z,5.71
2022-11-09T21:44:30.079Z,5.19
2022-11-09T21:47:37.820Z,5.40
2022-11-09T21:50:44.347Z,4.88
2022-11-09T21:53:50.839Z,5.11
2022-11-09T21:56:57.450Z,5.41
2022-11-09T22:00:03.841Z,4.60
2022-11-09T22:03:11.152Z,4.40
2022-11-09T22:06:18.090Z,4.85
2022-11-09T22:09:24.449Z,5.12
2022-11-09T22:12:48.132Z,4.93
2022-11-09T22:16:09.503Z,5.22
2022-11-09T22:19:34.563Z,4.73
2022-11-09T22:22:40.962Z,4.30
2022-11-09T22:25:48.045Z,3.98
2022-11-09T22:28:55.343Z,4.59
2022-11-09T22:32:01.256Z,4.45
2022-11-09T22:35:09.730Z,4.40
2022-11-09T22:38:15.632Z,4.39
2022-11-09T22:41:24.635Z,4.29
2022-11-09T22:44:30.686Z,3.88
2022-11-09T22:47:37.050Z,4.53
2022-11-09T22:50:44.587Z,4.72
2022-11-09T22:53:51.802Z,4.75
2022-11-09T22:56:57.962Z,5.08
2022-11-09T23:00:04.680Z,5.03
2022-11-09T23:03:10.878Z,4.79
2022-11-09T23:06:20.506Z,4.46
2022-11-09T23:09:26.537Z,3.94
2022-11-09T23:12:34.375Z,4.06
2022-11-09T23:15:40.455Z,4.28
2022-11-09T23:18:55.725Z,4.67
2022-11-09T23:22:03.283Z,3.60
2022-11-09T23:25:27.846Z,3.30
2022-11-09T23:28:34.803Z,3.26
2022-11-09T23:31:40.763Z,3.25
2022-11-09T23:34:46.771Z,3.39
2022-11-09T23:38:00.242Z,3.89
2022-11-09T23:41:07.991Z,4.26
2022-11-09T23:44:17.155Z,4.25
2022-11-09T23:47:23.338Z,3.60
2022-11-09T23:50:29.852Z,3.43
2022-11-09T23:53:37.654Z,3.80
2022-11-09T23:56:44.075Z,4.15
2022-11-09T23:59:50.120Z,3.65
